Enter the Airport ICAO Code

Search by Airport or City

Current Weather

LGTS | Thessaloniki Airport "Macedonia"

Thessaloniki, Greece

Last Update 28 Minutes Ago

Partly Cloudy Sky

Temperature of 08 ēC

Light Winds from Variable Directions

Temperature

08 ēC

Dew Point Temperature

07 ēC

Relative Humidity

93.42 %

Wind Direction

Variable

Wind Velocity

6 km/h (03 kt)

Gusts

None

Visibility

Greater than 10 Kilometers

Sea Level Pressure

1029 hPa (Hectopascals)

Layers of Clouds

5% to 30% of Sky Covered from 305 mts (1000 ft) Above Ground Level.

30% to 60% of Sky Covered from 914 mts (3000 ft) Above Ground Level.

METAR LGTS 160650Z VRB03KT 9999 FEW010 SCT030 08/07 Q1029 NOSIG

Weather Forecast

LGTS | Thessaloniki Airport "Macedonia"

Thessaloniki, Greece

Forecast valid for the next 23 Hours

From now on it is expected:

Sky with Few Clouds

Light Winds from Variable Directions

In 19 to 21 hours it is expected the begining of:

Mist

In 21 to 23 hours it is expected the begining of:

Fog

Maximum Temperature

No Data

Minimum Temperature

No Data

TAF LGTS 160500Z 1606/1706 VRB03KT 9999 FEW020 PROB40 1606/1609 5000 BR SCT004 PROB30 1606/1608 0400 FG BKN003 BECMG 1702/1704 5000 BR SCT008 BECMG 1704/1706 0200 FG OVC001